KWRI

Mc Guire Field (Joint Base Mc Guire Dix Lakehurst) Airport

Wrightstown, New Jersey, USA
TAF KWRI 210200Z 2102/2208 32009KT 9999 SKC QNH3030INS BECMG 2114/2115 30010G15KT 9999 FEW200 QNH3031INS BECMG 2120/2121 35009KT 9999 SKC QNH3032INS TX15/2120Z TN01/2110Z
Issued Valid From Valid To
Apr-21 @ 02:00 UTC
(8 hours ago)
Apr-21 @ 02:00 UTC
(8 hours ago)
Apr-22 @ 08:00 UTC
(in 22 hours)
Apr-21 @ 02:00 to Apr-21 @ 14:00
TAF KWRI 210200Z 2102/2208 32009KT 9999 SKC QNH3030INS
Wind Visibility Clouds Readings
320° at 9 knots Greater than 6 miles
  • Clear skies
Altimeter 30.3" Hg
Pressure 1026 hPa
Becoming Apr-21 @ 14:00 to Apr-21 @ 20:00
BECMG 2114/2115 30010G15KT 9999 FEW200 QNH3031INS
Wind Visibility Clouds Readings
300° at 10 knots
 Gusting to 15 knots
Greater than 6 miles
  • Few at 20,000' AGL
Altimeter 30.3" Hg
Pressure 1026 hPa
Becoming Apr-21 @ 20:00 to Apr-22 @ 08:00
BECMG 2120/2121 35009KT 9999 SKC QNH3032INS TX15/2120Z TN01/2110Z
Wind Visibility Clouds Readings
350° at 9 knots Greater than 6 miles
  • Clear skies
Altimeter 30.32" Hg
Pressure 1027 hPa
TAF KWRI 210200Z 2102/2208 32009KT 9999 SKC QNH3030INS BECMG 2114/2115 30010G15KT 9999 FEW200 QNH3031INS BECMG 2120/2121 35009KT 9999 SKC QNH3032INS TX15/2120Z TN01/2110Z
Issued Apr-21 @ 02:00 UTC
(8 hours ago)
Valid From Apr-21 @ 02:00 UTC
(8 hours ago)
Valid To Apr-22 @ 08:00 UTC
(in 22 hours)
Apr-21 @ 02:00 - Apr-21 @ 14:00
Wind Visibility
320° at 9 knots Greater than 6 miles
Clouds
  • Clear skies
Becoming Apr-21 @ 14:00 - Apr-21 @ 20:00
Wind Visibility
300° at 10 knots
 Gusting to 15 knots
Greater than 6 miles
Clouds
  • Few at 20,000' AGL
Becoming Apr-21 @ 20:00 - Apr-22 @ 08:00
Wind Visibility
350° at 9 knots Greater than 6 miles
Clouds
  • Clear skies